createdAt,value
2019-03-03T00:02:02.345Z,0.35
2019-03-03T00:04:31.683Z,0.55
2019-03-03T00:07:01.049Z,0.60
2019-03-03T00:09:30.453Z,0.23
2019-03-03T00:11:59.816Z,0.70
2019-03-03T00:14:29.120Z,0.47
2019-03-03T00:16:58.477Z,0.25
2019-03-03T00:19:27.826Z,0.57
2019-03-03T00:21:57.109Z,0.85
2019-03-03T00:24:26.403Z,0.70
2019-03-03T00:26:55.721Z,1.52
2019-03-03T00:29:25.098Z,0.80
2019-03-03T00:31:54.593Z,0.80
2019-03-03T00:34:23.934Z,0.80
2019-03-03T00:37:18.766Z,1.20
2019-03-03T00:40:06.664Z,0.82
2019-03-03T00:43:02.940Z,0.78
2019-03-03T00:45:50.123Z,0.93
2019-03-03T00:48:31.345Z,0.95
2019-03-03T00:51:12.970Z,0.85
2019-03-03T00:53:58.414Z,0.80
2019-03-03T00:56:35.519Z,1.10
2019-03-03T00:59:14.213Z,1.10
2019-03-03T01:01:48.465Z,0.90
2019-03-03T01:04:27.350Z,0.30
2019-03-03T01:07:24.850Z,1.20
2019-03-03T01:10:09.155Z,1.27
2019-03-03T01:12:53.345Z,1.00
2019-03-03T01:15:41.770Z,0.98
2019-03-03T01:18:28.295Z,1.30
2019-03-03T01:21:12.953Z,0.82
2019-03-03T01:23:49.427Z,1.32
2019-03-03T01:26:18.813Z,0.90
2019-03-03T01:28:48.198Z,0.50
2019-03-03T01:31:17.626Z,0.75
2019-03-03T01:33:47.006Z,0.90
2019-03-03T01:36:16.290Z,1.37
2019-03-03T01:38:45.678Z,0.98
2019-03-03T01:41:15.074Z,1.85
2019-03-03T01:43:44.392Z,0.42
2019-03-03T01:46:13.817Z,0.90
2019-03-03T01:48:43.209Z,0.95
2019-03-03T01:51:12.592Z,1.12
2019-03-03T01:53:41.955Z,1.27
2019-03-03T01:56:11.323Z,1.20
2019-03-03T01:58:40.689Z,1.42
2019-03-03T02:01:10.078Z,0.53
2019-03-03T02:03:40.160Z,0.55
2019-03-03T02:06:09.844Z,1.40
2019-03-03T02:08:39.314Z,0.62
2019-03-03T02:11:08.617Z,1.30
2019-03-03T02:13:37.983Z,0.90
2019-03-03T02:16:07.666Z,1.10
2019-03-03T02:18:37.034Z,1.00
2019-03-03T02:21:06.346Z,0.40
2019-03-03T02:23:35.750Z,0.70
2019-03-03T02:26:05.124Z,1.00
2019-03-03T02:28:34.545Z,1.00
2019-03-03T02:31:03.965Z,0.55
2019-03-03T02:33:33.252Z,1.67
2019-03-03T02:36:02.636Z,1.00
2019-03-03T02:38:32.089Z,0.78
2019-03-03T02:41:01.460Z,0.37
2019-03-03T02:43:37.631Z,0.82
2019-03-03T02:46:07.010Z,0.55
2019-03-03T02:48:36.377Z,1.80
2019-03-03T02:51:05.983Z,0.70
2019-03-03T02:53:35.367Z,0.80
2019-03-03T02:56:04.740Z,1.72
2019-03-03T02:58:34.068Z,0.65
2019-03-03T03:01:18.462Z,0.93
2019-03-03T03:03:47.865Z,1.17
2019-03-03T03:06:34.779Z,0.93
2019-03-03T03:09:30.349Z,0.53
2019-03-03T03:12:24.717Z,0.60
2019-03-03T03:15:15.934Z,0.72
2019-03-03T03:17:56.880Z,1.05
2019-03-03T03:20:44.460Z,1.20
2019-03-03T03:23:35.934Z,1.00
2019-03-03T03:26:22.666Z,2.20
2019-03-03T03:29:09.643Z,0.93
2019-03-03T03:31:56.524Z,1.37
2019-03-03T03:34:50.737Z,1.77
2019-03-03T03:37:29.586Z,1.32
2019-03-03T03:40:17.928Z,1.05
2019-03-03T03:43:01.159Z,2.58
2019-03-03T03:45:53.353Z,1.25
2019-03-03T03:48:44.753Z,1.20
2019-03-03T03:51:23.716Z,1.92
2019-03-03T03:54:14.782Z,1.25
2019-03-03T03:56:55.286Z,2.65
2019-03-03T03:59:30.240Z,0.82
2019-03-03T04:02:18.607Z,2.08
2019-03-03T04:05:06.987Z,2.50
2019-03-03T04:07:55.257Z,1.70
2019-03-03T04:10:33.286Z,1.55
2019-03-03T04:13:10.963Z,1.77
2019-03-03T04:15:51.444Z,2.00
2019-03-03T04:18:25.531Z,1.67
2019-03-03T04:21:16.727Z,3.30
2019-03-03T04:24:00.678Z,1.98
2019-03-03T04:26:57.656Z,1.62
2019-03-03T04:29:53.260Z,0.93
2019-03-03T04:32:47.445Z,1.65
2019-03-03T04:35:38.554Z,1.60
2019-03-03T04:38:32.725Z,1.67
2019-03-03T04:41:21.054Z,1.62
2019-03-03T04:44:09.401Z,1.65
2019-03-03T04:47:07.044Z,1.92
2019-03-03T04:49:58.421Z,2.17
2019-03-03T04:52:58.604Z,2.10
2019-03-03T04:55:38.580Z,1.70
2019-03-03T04:58:26.903Z,1.52
2019-03-03T05:01:09.229Z,1.65
2019-03-03T05:04:03.301Z,2.58
2019-03-03T05:06:50.297Z,2.33
2019-03-03T05:09:50.962Z,2.70
2019-03-03T05:12:42.078Z,1.10
2019-03-03T05:15:41.238Z,2.92
2019-03-03T05:18:18.461Z,1.90
2019-03-03T05:20:52.034Z,1.40
2019-03-03T05:23:21.445Z,1.62
2019-03-03T05:25:50.846Z,2.60
2019-03-03T05:28:20.240Z,2.05
2019-03-03T05:30:49.679Z,1.98
2019-03-03T05:33:19.044Z,1.77
2019-03-03T05:35:48.350Z,1.60
2019-03-03T05:38:17.673Z,3.17
2019-03-03T05:40:46.963Z,2.77
2019-03-03T05:43:16.262Z,1.85
2019-03-03T05:45:45.645Z,0.95
2019-03-03T05:48:15.049Z,2.27
2019-03-03T05:50:44.417Z,2.65
2019-03-03T05:53:13.804Z,2.62
2019-03-03T05:55:43.096Z,2.87
2019-03-03T05:58:12.381Z,1.75
2019-03-03T06:00:41.777Z,1.87
2019-03-03T06:03:11.063Z,2.25
2019-03-03T06:05:40.366Z,2.02
2019-03-03T06:08:09.725Z,3.65
2019-03-03T06:10:38.994Z,4.22
2019-03-03T06:13:08.302Z,2.08
2019-03-03T06:15:37.608Z,2.33
2019-03-03T06:18:07.589Z,2.60
2019-03-03T06:20:36.887Z,2.05
2019-03-03T06:23:06.213Z,2.70
2019-03-03T06:25:35.551Z,1.85
2019-03-03T06:28:04.899Z,1.72
2019-03-03T06:30:34.209Z,2.72
2019-03-03T06:33:03.570Z,2.30
2019-03-03T06:35:32.951Z,3.45
2019-03-03T06:38:02.362Z,4.15
2019-03-03T06:40:31.654Z,5.78
2019-03-03T06:43:00.941Z,4.40
2019-03-03T06:45:30.396Z,4.72
2019-03-03T06:47:59.680Z,5.05
2019-03-03T06:50:29.080Z,4.30
2019-03-03T06:52:58.513Z,4.67
2019-03-03T06:55:27.798Z,4.87
2019-03-03T06:57:57.113Z,4.83
2019-03-03T07:00:26.422Z,4.85
2019-03-03T07:02:55.795Z,5.60
2019-03-03T07:05:26.066Z,5.03
2019-03-03T07:07:55.483Z,5.50
2019-03-03T07:10:24.849Z,5.37
2019-03-03T07:12:54.144Z,5.20
2019-03-03T07:15:23.561Z,4.03
2019-03-03T07:17:52.864Z,5.00
2019-03-03T07:20:22.301Z,4.08
2019-03-03T07:22:51.701Z,4.55
2019-03-03T07:25:20.994Z,5.12
2019-03-03T07:27:50.357Z,5.87
2019-03-03T07:30:19.793Z,4.70
2019-03-03T07:32:54.640Z,6.65
2019-03-03T07:35:24.108Z,4.75
2019-03-03T07:37:53.520Z,5.28
2019-03-03T07:40:22.886Z,4.78
2019-03-03T07:42:52.213Z,4.78
2019-03-03T07:45:21.566Z,5.35
2019-03-03T07:47:50.945Z,4.30
2019-03-03T07:50:20.293Z,4.45
2019-03-03T07:52:49.578Z,6.45
2019-03-03T07:55:18.998Z,3.98
2019-03-03T07:57:48.330Z,7.42
2019-03-03T08:00:17.616Z,8.25
2019-03-03T08:02:47.378Z,6.65
2019-03-03T08:05:16.809Z,6.95
2019-03-03T08:07:46.043Z,5.78
2019-03-03T08:10:15.453Z,7.60
2019-03-03T08:12:44.862Z,5.47
2019-03-03T08:15:14.541Z,6.08
2019-03-03T08:17:43.965Z,6.50
2019-03-03T08:20:13.440Z,9.15
2019-03-03T08:22:42.732Z,7.87
2019-03-03T08:25:12.182Z,9.65
2019-03-03T08:27:41.886Z,8.43
2019-03-03T08:30:11.295Z,5.58
2019-03-03T08:32:40.655Z,9.95
2019-03-03T08:35:11.600Z,8.20
2019-03-03T08:37:40.900Z,9.23
2019-03-03T08:40:10.269Z,6.45
2019-03-03T08:42:46.028Z,8.83
2019-03-03T08:45:33.322Z,6.78
2019-03-03T08:48:15.981Z,8.20
2019-03-03T08:51:13.884Z,4.05
2019-03-03T08:54:08.165Z,6.33
2019-03-03T08:56:46.889Z,7.22
2019-03-03T08:59:27.020Z,4.30
2019-03-03T09:02:03.198Z,7.08
2019-03-03T09:04:50.056Z,5.22
2019-03-03T09:07:29.753Z,7.72
2019-03-03T09:10:11.727Z,7.87
2019-03-03T09:13:09.298Z,6.40
2019-03-03T09:16:00.829Z,5.40
2019-03-03T09:19:07.621Z,8.73
2019-03-03T09:21:52.400Z,7.03
2019-03-03T09:24:32.320Z,7.75
2019-03-03T09:27:23.651Z,9.33
2019-03-03T09:30:27.445Z,7.85
2019-03-03T09:33:31.041Z,7.87
2019-03-03T09:36:27.232Z,8.08
2019-03-03T09:39:24.176Z,8.33
2019-03-03T09:42:05.601Z,7.47
2019-03-03T09:44:56.660Z,9.85
2019-03-03T09:47:48.073Z,9.33
2019-03-03T09:50:39.061Z,8.18
2019-03-03T09:53:30.521Z,10.85
2019-03-03T09:56:21.975Z,9.80
2019-03-03T09:59:16.269Z,6.50
2019-03-03T10:02:04.647Z,8.98
2019-03-03T10:04:49.357Z,9.05
2019-03-03T10:07:43.302Z,8.08
2019-03-03T10:10:31.741Z,7.15
2019-03-03T10:13:07.223Z,9.50
2019-03-03T10:15:44.303Z,7.58
2019-03-03T10:18:35.861Z,7.83
2019-03-03T10:21:23.037Z,7.90
2019-03-03T10:24:11.401Z,8.93
2019-03-03T10:26:58.437Z,6.72
2019-03-03T10:29:46.762Z,6.83
2019-03-03T10:32:40.831Z,7.30
2019-03-03T10:35:21.901Z,6.28
2019-03-03T10:38:05.877Z,6.97
2019-03-03T10:40:40.393Z,6.83
2019-03-03T10:43:21.805Z,5.80
2019-03-03T10:46:13.103Z,7.95
2019-03-03T10:48:51.117Z,7.65
2019-03-03T10:51:51.695Z,7.25
2019-03-03T10:54:44.085Z,7.15
2019-03-03T10:57:31.086Z,6.37
2019-03-03T11:00:18.122Z,8.45
2019-03-03T11:03:05.523Z,6.95
2019-03-03T11:05:59.830Z,6.58
2019-03-03T11:08:46.849Z,7.03
2019-03-03T11:11:34.241Z,6.92
2019-03-03T11:14:28.910Z,6.53
2019-03-03T11:17:35.060Z,6.33
2019-03-03T11:20:23.666Z,6.62
2019-03-03T11:23:20.737Z,5.30
2019-03-03T11:26:26.977Z,5.35
2019-03-03T11:29:14.050Z,5.25
2019-03-03T11:32:00.469Z,5.85
2019-03-03T11:34:47.322Z,6.60
2019-03-03T11:37:34.314Z,6.53
2019-03-03T11:40:14.838Z,7.58
2019-03-03T11:42:55.156Z,6.22
2019-03-03T11:45:33.058Z,6.00
2019-03-03T11:48:08.345Z,5.35
2019-03-03T11:50:47.129Z,5.30
2019-03-03T11:53:34.284Z,5.10
2019-03-03T11:56:29.630Z,5.28
2019-03-03T11:59:20.753Z,5.83
2019-03-03T12:02:27.306Z,5.15
2019-03-03T12:05:14.790Z,5.72
2019-03-03T12:08:03.146Z,5.42
2019-03-03T12:10:54.526Z,3.87
2019-03-03T12:13:29.629Z,5.08
2019-03-03T12:16:18.041Z,6.30
2019-03-03T12:18:54.335Z,5.25
2019-03-03T12:21:49.095Z,6.35
2019-03-03T12:24:35.905Z,5.10
2019-03-03T12:27:33.116Z,5.22
2019-03-03T12:30:29.021Z,3.47
2019-03-03T12:33:17.361Z,3.80
2019-03-03T12:35:53.722Z,3.17
2019-03-03T12:38:34.890Z,3.62
2019-03-03T12:41:26.037Z,3.25
2019-03-03T12:44:17.377Z,3.42
2019-03-03T12:46:57.799Z,3.50
2019-03-03T12:49:37.872Z,2.98
2019-03-03T12:52:24.661Z,3.02
2019-03-03T12:55:00.837Z,2.58
2019-03-03T12:57:52.390Z,2.80
2019-03-03T13:00:59.208Z,2.70
2019-03-03T13:03:47.578Z,1.98
2019-03-03T13:10:49.965Z,2.27
2019-03-03T13:16:27.001Z,2.08
2019-03-03T13:23:21.103Z,1.27
2019-03-03T13:26:08.027Z,1.25
2019-03-03T13:29:08.170Z,2.33
2019-03-03T13:31:56.523Z,2.15
2019-03-03T13:34:43.431Z,2.22
2019-03-03T13:37:30.404Z,1.62
2019-03-03T13:40:15.609Z,2.95
2019-03-03T13:42:56.655Z,1.85
2019-03-03T13:45:28.797Z,1.55
2019-03-03T13:47:58.188Z,1.60
2019-03-03T13:50:28.082Z,1.82
2019-03-03T13:52:57.526Z,1.92
2019-03-03T13:55:26.908Z,2.65
2019-03-03T13:57:56.416Z,1.02
2019-03-03T14:00:25.963Z,1.40
2019-03-03T14:02:55.321Z,2.12
2019-03-03T14:05:25.217Z,2.58
2019-03-03T14:07:54.562Z,1.95
2019-03-03T14:10:23.975Z,2.10
2019-03-03T14:12:53.333Z,1.67
2019-03-03T14:15:22.773Z,3.05
2019-03-03T14:17:52.186Z,2.42
2019-03-03T14:20:22.811Z,2.45
2019-03-03T14:22:54.184Z,2.15
2019-03-03T14:25:23.587Z,1.80
2019-03-03T14:27:52.962Z,1.80
2019-03-03T14:30:23.921Z,2.62
2019-03-03T14:32:51.542Z,1.50
2019-03-03T14:35:19.054Z,1.75
2019-03-03T14:37:46.617Z,1.42
2019-03-03T14:40:15.226Z,2.80
2019-03-03T14:42:42.677Z,0.82
2019-03-03T14:45:11.913Z,1.67
2019-03-03T14:47:39.381Z,1.30
2019-03-03T14:50:08.855Z,1.10
2019-03-03T14:52:36.358Z,0.80
2019-03-03T14:55:05.327Z,1.10
2019-03-03T14:57:32.754Z,1.90
2019-03-03T15:00:00.304Z,1.90
2019-03-03T15:02:27.820Z,1.55
2019-03-03T15:04:55.327Z,0.93
2019-03-03T15:07:22.829Z,0.98
2019-03-03T15:09:50.295Z,0.95
2019-03-03T15:12:17.765Z,1.80
2019-03-03T15:14:45.235Z,0.93
2019-03-03T15:17:12.694Z,1.20
2019-03-03T15:19:40.134Z,1.30
2019-03-03T15:22:07.630Z,2.70
2019-03-03T15:24:35.090Z,1.10
2019-03-03T15:27:02.540Z,0.30
2019-03-03T15:29:30.014Z,1.40
2019-03-03T15:31:57.450Z,1.35
2019-03-03T15:34:24.943Z,2.22
2019-03-03T15:36:52.522Z,1.22
2019-03-03T16:09:16.852Z,0.65
2019-03-03T16:11:46.244Z,0.10
2019-03-03T16:14:15.548Z,0.40
2019-03-03T16:16:44.849Z,0.10
2019-03-03T16:19:14.210Z,0.20
2019-03-03T16:23:01.398Z,0.10
